createdAt,value
2019-04-16T06:07:23.778Z,19.47
2019-04-16T06:17:25.895Z,14.43
2019-04-16T06:27:26.638Z,21.00
2019-04-16T08:01:00.045Z,18.27
2019-04-16T08:11:01.322Z,20.27
2019-04-16T08:21:10.182Z,21.43
2019-04-16T08:31:03.881Z,21.13
2019-04-16T08:41:05.932Z,19.23
2019-04-16T08:51:07.213Z,15.95
2019-04-16T09:11:23.221Z,17.10
2019-04-16T09:21:17.309Z,17.17
2019-04-16T09:31:18.801Z,18.00
2019-04-16T09:41:19.949Z,16.62
2019-04-16T09:51:21.510Z,25.92
2019-04-16T10:01:22.556Z,18.58
2019-04-16T10:11:23.820Z,17.17
2019-04-16T10:21:28.228Z,16.60
2019-04-16T10:31:27.525Z,17.12
2019-04-16T10:41:28.822Z,15.70
2019-04-16T10:51:30.869Z,16.90
2019-04-16T11:01:34.978Z,19.10
2019-04-16T11:11:33.482Z,19.47
2019-04-16T11:51:54.595Z,16.30
2019-04-16T12:01:56.645Z,14.80
2019-04-16T12:11:57.903Z,16.23
2019-04-16T12:22:00.018Z,15.03
2019-04-16T12:32:04.293Z,14.43
2019-04-16T12:42:03.401Z,16.37
2019-04-16T12:52:15.278Z,17.30
2019-04-16T13:02:13.290Z,16.17
2019-04-16T13:12:11.834Z,14.77
2019-04-16T13:22:13.144Z,13.63
2019-04-16T13:32:14.421Z,13.80
2019-04-16T13:42:16.453Z,12.60
2019-04-16T13:52:20.475Z,13.13
2019-04-16T14:02:19.015Z,14.70
2019-04-16T14:22:30.332Z,16.97
2019-04-16T14:32:31.634Z,15.60
2019-04-16T14:42:32.953Z,13.80
2019-04-16T14:52:34.254Z,16.00
2019-04-16T15:02:35.529Z,12.43
2019-04-16T15:12:36.828Z,13.10
2019-04-16T15:22:38.111Z,13.50
2019-04-16T15:32:39.434Z,14.57
2019-04-16T15:42:40.726Z,16.23
2019-04-16T15:52:45.922Z,12.27
2019-04-16T16:02:45.395Z,14.13
2019-04-16T16:12:44.619Z,13.57
2019-04-16T16:22:45.878Z,14.13
2019-04-16T16:32:47.139Z,16.63
2019-04-16T16:42:48.425Z,12.43
2019-04-16T16:52:50.184Z,13.43
2019-04-16T17:02:51.089Z,14.53
2019-04-16T17:12:52.366Z,15.00
2019-04-16T17:22:53.766Z,14.37
2019-04-16T17:32:54.983Z,14.50
2019-04-16T17:42:56.247Z,14.73
2019-04-16T17:52:57.539Z,15.57
2019-04-16T18:03:03.042Z,12.10
2019-04-16T18:13:01.693Z,15.10
2019-04-16T18:23:03.974Z,16.67
2019-04-16T18:33:07.418Z,15.13
2019-04-16T18:43:07.385Z,16.07
2019-04-16T18:53:10.808Z,17.57
2019-04-16T19:03:14.601Z,17.73
2019-04-16T19:13:12.268Z,17.77
2019-04-16T19:23:13.641Z,20.77
2019-04-16T19:33:14.998Z,19.13
2019-04-16T19:43:16.334Z,19.37
2019-04-16T19:53:17.604Z,20.47
2019-04-16T20:03:18.907Z,19.03
2019-04-16T20:13:20.190Z,15.83
2019-04-16T20:23:22.215Z,15.07
2019-04-16T20:33:23.493Z,16.80
2019-04-16T20:43:25.537Z,16.73
2019-04-16T20:53:26.821Z,15.83
2019-04-16T21:03:31.133Z,17.80
2019-04-16T21:13:29.441Z,20.17
2019-04-16T21:23:31.869Z,18.87
2019-04-16T21:33:32.064Z,19.93
2019-04-16T21:43:35.732Z,20.60
2019-04-16T21:53:34.670Z,19.13
2019-04-16T22:03:41.900Z,17.13
2019-04-16T22:13:38.007Z,16.93
2019-04-16T22:23:41.322Z,18.63
2019-04-16T22:33:42.605Z,17.40
2019-04-16T22:43:43.885Z,17.20
2019-04-16T22:53:46.426Z,17.37
2019-04-16T23:03:46.487Z,18.43
2019-04-16T23:13:47.771Z,19.63
2019-04-16T23:33:56.551Z,19.23
2019-04-16T23:43:57.983Z,22.73
2019-04-16T23:53:59.133Z,18.37
